KCZZ

Campo Airport

Campo, California, USA
METAR KCZZ 260352Z AUTO 25008KT 12/08 A3002 RMK AO1 SLP148 T01170078
Observed Flight Rules
May-26 @ 03:52 UTC (26 minutes ago)
Wind
250° at 8 knots
Temperatures Readings
Current 12°C / 54°F
Dewpoint 8°C / 46°F
Humidity 77%
Altimeter 30.02" Hg
Pressure 1014.8 hPa
Elevation 807
METAR KCZZ 260352Z AUTO 25008KT 12/08 A3002 RMK AO1 SLP148 T01170078
Observed Flight Rules
May-26 @ 03:52 UTC
(26 minutes ago)
Wind
250° at 8 knots
Temperature Dewpoint
12°C / 54°F 8°C / 46°F
Humidity Altimeter Pressure
77% 30.02" Hg 1014.8 hPa